Time;durP1;ratioP1;P1;durP2;ratioP2;P2;SDS_P1;SDS_P2;PMS_P1;PMS_P2;Temp;Humidity;BMP_temperature;BMP_pressure;BME280_temperature;BME280_humidity;BME280_pressure;Samples;Min_cycle;Max_cycle;Signal;HPM_P1;HPM_P2
2023/02/21 02:14:58;;;;;;;12.23;7.80;;;;;;;;;;5057168;28;20262;-62
2023/02/21 02:17:35;;;;;;;16.00;8.37;;;;;;;;;;5057209;28;20203;-62
2023/02/21 02:20:37;;;;;;;15.10;7.93;;;;;;;;;;5048676;28;20233;-62
2023/02/21 02:23:18;;;;;;;14.97;8.23;;;;;;;;;;5002018;28;20231;-62
2023/02/21 02:25:56;;;;;;;13.60;8.47;;;;;;;;;;5015396;28;20212;-62
2023/02/21 02:28:37;;;;;;;14.53;8.57;;;;;;;;;;5041670;28;20289;-62
2023/02/21 02:31:20;;;;;;;13.00;8.43;;;;;;;;;;5057108;28;20203;-62
2023/02/21 02:34:13;;;;;;;14.50;8.27;;;;;;;;;;5057030;28;20313;-62
2023/02/21 02:36:44;;;;;;;12.20;8.57;;;;;;;;;;5056860;28;20202;-62
2023/02/21 02:39:18;;;;;;;14.47;8.00;;;;;;;;;;5037543;28;20216;-62
2023/02/21 02:41:49;;;;;;;14.70;8.50;;;;;;;;;;5040869;28;20227;-62
2023/02/21 02:44:21;;;;;;;16.53;8.63;;;;;;;;;;5041100;28;20237;-62
2023/02/21 02:46:49;;;;;;;12.23;7.63;;;;;;;;;;5040880;28;20208;-62
2023/02/21 02:49:19;;;;;;;12.37;8.07;;;;;;;;;;5040556;28;20239;-62
2023/02/21 02:51:52;;;;;;;14.20;8.87;;;;;;;;;;5040569;28;20226;-62
2023/02/21 02:54:20;;;;;;;17.13;8.27;;;;;;;;;;5040807;28;20231;-62
2023/02/21 02:56:48;;;;;;;11.33;8.00;;;;;;;;;;5040450;28;20208;-62
2023/02/21 02:59:17;;;;;;;11.17;8.10;;;;;;;;;;5040814;28;20214;-62
2023/02/21 03:01:52;;;;;;;12.20;8.57;;;;;;;;;;5040344;28;20310;-62
2023/02/21 03:04:31;;;;;;;11.23;7.67;;;;;;;;;;5040323;28;20227;-62
2023/02/21 03:07:03;;;;;;;10.60;7.90;;;;;;;;;;5040131;28;20727;-62
2023/02/21 03:09:34;;;;;;;13.73;8.07;;;;;;;;;;5040231;28;20285;-62
2023/02/21 03:12:03;;;;;;;10.83;8.47;;;;;;;;;;5040534;28;20230;-62
2023/02/21 03:14:35;;;;;;;11.67;8.33;;;;;;;;;;5040075;28;20291;-62
2023/02/21 03:17:08;;;;;;;10.97;8.27;;;;;;;;;;5040114;28;20719;-63
2023/02/21 03:19:37;;;;;;;12.63;8.57;;;;;;;;;;5040039;28;20204;-62
2023/02/21 03:22:08;;;;;;;12.73;8.27;;;;;;;;;;5040107;28;20274;-62
2023/02/21 03:24:37;;;;;;;12.40;9.10;;;;;;;;;;5039890;28;20662;-62
2023/02/21 03:27:06;;;;;;;12.30;8.80;;;;;;;;;;5040107;28;20214;-62
2023/02/21 03:29:34;;;;;;;13.40;8.60;;;;;;;;;;5040125;28;20204;-62
2023/02/21 03:34:38;;;;;;;13.83;8.67;;;;;;;;;;5039616;28;20235;-62
2023/02/21 03:37:08;;;;;;;11.77;8.43;;;;;;;;;;5042346;28;20218;-63
2023/02/21 03:39:36;;;;;;;12.30;8.03;;;;;;;;;;5059922;28;20238;-63
2023/02/21 03:42:04;;;;;;;14.07;8.90;;;;;;;;;;5039721;28;20318;-64
2023/02/21 03:44:32;;;;;;;13.73;8.67;;;;;;;;;;5039756;28;20263;-63
2023/02/21 03:47:00;;;;;;;10.30;8.87;;;;;;;;;;5039741;28;20218;-64
2023/02/21 03:49:28;;;;;;;12.03;8.23;;;;;;;;;;5039643;28;20212;-63
2023/02/21 03:51:56;;;;;;;15.17;10.00;;;;;;;;;;5039112;28;20199;-63
2023/02/21 03:54:26;;;;;;;13.10;9.13;;;;;;;;;;5039551;28;20231;-64
2023/02/21 03:56:54;;;;;;;16.33;10.63;;;;;;;;;;5039551;28;20286;-63
2023/02/21 03:59:21;;;;;;;15.80;10.20;;;;;;;;;;5039557;28;20290;-64
2023/02/21 04:01:50;;;;;;;13.13;8.97;;;;;;;;;;5039156;28;20227;-64
2023/02/21 04:04:18;;;;;;;13.43;9.73;;;;;;;;;;5038982;28;20289;-63
2023/02/21 04:06:46;;;;;;;17.40;10.10;;;;;;;;;;5045420;28;20289;-64
2023/02/21 04:09:17;;;;;;;20.30;10.23;;;;;;;;;;5058924;28;20250;-63
2023/02/21 04:11:49;;;;;;;17.40;9.20;;;;;;;;;;5059285;28;20241;-64
2023/02/21 04:14:18;;;;;;;15.37;9.63;;;;;;;;;;5058763;28;20235;-63
2023/02/21 04:16:46;;;;;;;13.20;8.60;;;;;;;;;;5059163;28;20203;-63
2023/02/21 04:19:14;;;;;;;20.37;10.60;;;;;;;;;;5056099;28;20273;-63
2023/02/21 04:21:42;;;;;;;14.30;9.63;;;;;;;;;;5038854;28;20318;-63
2023/02/21 04:24:10;;;;;;;15.13;9.47;;;;;;;;;;5038893;28;20315;-63
2023/02/21 04:26:38;;;;;;;15.70;9.07;;;;;;;;;;5039052;28;20207;-63
2023/02/21 04:29:08;;;;;;;16.23;10.10;;;;;;;;;;5038672;28;20211;-64
2023/02/21 04:31:36;;;;;;;12.77;8.13;;;;;;;;;;5038684;28;20231;-64
2023/02/21 04:34:04;;;;;;;15.07;9.30;;;;;;;;;;5038369;28;20768;-64
2023/02/21 04:36:39;;;;;;;14.87;9.40;;;;;;;;;;5038608;28;20218;-64
2023/02/21 04:39:07;;;;;;;12.67;8.73;;;;;;;;;;5057865;28;20630;-64
2023/02/21 04:41:35;;;;;;;13.13;9.10;;;;;;;;;;5045521;28;20269;-64
2023/02/21 04:44:04;;;;;;;13.27;8.90;;;;;;;;;;5045279;28;20263;-64
2023/02/21 04:46:33;;;;;;;14.67;9.33;;;;;;;;;;5058306;28;20723;-64
2023/02/21 04:49:02;;;;;;;12.47;8.63;;;;;;;;;;5058562;28;20238;-64
2023/02/21 04:51:30;;;;;;;16.23;9.50;;;;;;;;;;5058047;28;20214;-64
2023/02/21 04:53:58;;;;;;;12.97;8.67;;;;;;;;;;5058416;28;20238;-64
2023/02/21 04:56:26;;;;;;;13.50;8.83;;;;;;;;;;5058065;28;20238;-63
2023/02/21 04:58:54;;;;;;;13.60;9.07;;;;;;;;;;5058399;28;20237;-64
2023/02/21 05:01:22;;;;;;;13.07;9.00;;;;;;;;;;5057908;28;20657;-63
2023/02/21 05:03:52;;;;;;;17.00;9.60;;;;;;;;;;5057916;28;20600;-63
2023/02/21 05:06:20;;;;;;;13.47;9.03;;;;;;;;;;5057168;28;20732;-62
2023/02/21 05:08:48;;;;;;;18.03;9.13;;;;;;;;;;5058071;28;20211;-64
2023/02/21 05:11:16;;;;;;;15.37;9.37;;;;;;;;;;5058111;28;20203;-64
2023/02/21 05:13:45;;;;;;;16.27;9.40;;;;;;;;;;5057890;28;20593;-64
2023/02/21 05:16:13;;;;;;;14.10;9.80;;;;;;;;;;5058039;28;20241;-64
2023/02/21 05:18:41;;;;;;;16.57;9.60;;;;;;;;;;5057782;28;20591;-64
2023/02/21 05:21:11;;;;;;;14.00;9.30;;;;;;;;;;5051924;28;20211;-64
2023/02/21 05:23:39;;;;;;;12.27;8.77;;;;;;;;;;5037452;28;20231;-63
2023/02/21 05:26:08;;;;;;;16.07;9.50;;;;;;;;;;5044742;28;20294;-63
2023/02/21 05:28:37;;;;;;;13.80;9.67;;;;;;;;;;5057573;28;20203;-64
2023/02/21 05:31:05;;;;;;;19.63;10.33;;;;;;;;;;5057376;28;20690;-64
2023/02/21 05:33:33;;;;;;;12.83;9.53;;;;;;;;;;5055694;28;20410;-64
2023/02/21 05:36:01;;;;;;;11.93;8.83;;;;;;;;;;5040747;28;20265;-63
2023/02/21 05:38:31;;;;;;;13.97;9.23;;;;;;;;;;5050326;28;20290;-64
2023/02/21 05:40:59;;;;;;;16.63;9.27;;;;;;;;;;5040824;28;20211;-62
2023/02/21 05:43:32;;;;;;;16.40;9.33;;;;;;;;;;5043971;28;20227;-63
2023/02/21 05:46:00;;;;;;;12.37;9.57;;;;;;;;;;5045418;28;20230;-63
2023/02/21 05:48:28;;;;;;;13.87;8.80;;;;;;;;;;5045913;28;20682;-64
2023/02/21 05:50:56;;;;;;;14.50;9.13;;;;;;;;;;5045363;28;20199;-63
2023/02/21 05:53:24;;;;;;;14.27;9.80;;;;;;;;;;5045558;28;20219;-62
2023/02/21 05:55:53;;;;;;;16.63;9.43;;;;;;;;;;5045328;28;20204;-61
2023/02/21 05:58:21;;;;;;;16.83;10.10;;;;;;;;;;5043746;28;20227;-62
2023/02/21 06:00:51;;;;;;;19.13;10.67;;;;;;;;;;5045861;28;20267;-62
2023/02/21 06:03:19;;;;;;;17.47;9.97;;;;;;;;;;5045415;28;20227;-62
2023/02/21 06:05:48;;;;;;;15.27;10.20;;;;;;;;;;5047986;28;20614;-61
2023/02/21 06:08:16;;;;;;;19.87;10.37;;;;;;;;;;5045888;28;20544;-61
2023/02/21 06:10:44;;;;;;;16.70;9.83;;;;;;;;;;5047783;28;20292;-61
2023/02/21 06:13:16;;;;;;;18.80;10.37;;;;;;;;;;5057073;28;20250;-63
2023/02/21 06:15:44;;;;;;;16.63;10.97;;;;;;;;;;5057122;28;20245;-62
2023/02/21 06:18:13;;;;;;;19.53;10.73;;;;;;;;;;5059725;28;20203;-62
2023/02/21 06:20:41;;;;;;;18.37;10.80;;;;;;;;;;5046417;28;20203;-61
2023/02/21 06:23:09;;;;;;;20.93;11.00;;;;;;;;;;5040567;28;20616;-63
2023/02/21 06:25:37;;;;;;;17.77;10.57;;;;;;;;;;5040966;28;20328;-61
2023/02/21 06:28:05;;;;;;;23.10;11.67;;;;;;;;;;5040976;28;20239;-62
2023/02/21 06:30:34;;;;;;;19.27;11.97;;;;;;;;;;5041071;28;20218;-62
2023/02/21 06:33:02;;;;;;;21.07;11.80;;;;;;;;;;5040960;28;20227;-62
2023/02/21 06:35:30;;;;;;;21.23;11.10;;;;;;;;;;5044605;28;20285;-63
2023/02/21 06:37:58;;;;;;;24.80;11.97;;;;;;;;;;5050350;28;20195;-62
2023/02/21 06:40:26;;;;;;;20.57;11.67;;;;;;;;;;5056515;28;20747;-61
2023/02/21 06:42:54;;;;;;;21.40;12.20;;;;;;;;;;5040791;28;20239;-63
2023/02/21 06:45:22;;;;;;;24.23;13.10;;;;;;;;;;5040350;28;20207;-62
2023/02/21 06:47:52;;;;;;;26.27;13.63;;;;;;;;;;5040477;28;20234;-61
2023/02/21 06:50:20;;;;;;;20.53;12.20;;;;;;;;;;5040319;28;20231;-62
2023/02/21 06:52:48;;;;;;;30.70;14.13;;;;;;;;;;5040337;28;20251;-63
2023/02/21 06:55:19;;;;;;;26.83;13.40;;;;;;;;;;5040883;28;20207;-62
2023/02/21 06:57:50;;;;;;;27.67;12.90;;;;;;;;;;5040430;28;20273;-62
2023/02/21 07:00:18;;;;;;;23.60;14.50;;;;;;;;;;5053963;28;20663;-61
2023/02/21 07:02:46;;;;;;;32.33;15.87;;;;;;;;;;5059988;28;20223;-62
2023/02/21 07:05:16;;;;;;;24.80;13.37;;;;;;;;;;5060224;28;20242;-62
2023/02/21 07:07:44;;;;;;;26.07;14.30;;;;;;;;;;5059688;28;20231;-63
2023/02/21 07:10:12;;;;;;;25.53;14.27;;;;;;;;;;5060043;28;20210;-62
2023/02/21 07:12:40;;;;;;;23.50;13.60;;;;;;;;;;5059777;28;20225;-62
2023/02/21 07:15:08;;;;;;;28.03;15.50;;;;;;;;;;5060171;28;20238;-63
2023/02/21 07:17:36;;;;;;;26.93;14.20;;;;;;;;;;5059594;28;20636;-63
2023/02/21 07:20:04;;;;;;;29.03;14.90;;;;;;;;;;5059566;28;20290;-62
2023/02/21 07:22:34;;;;;;;20.83;12.37;;;;;;;;;;5059183;28;20249;-63
2023/02/21 07:25:02;;;;;;;24.47;13.73;;;;;;;;;;5059812;28;20734;-63
2023/02/21 07:27:30;;;;;;;30.40;15.13;;;;;;;;;;5059461;28;20214;-63
2023/02/21 07:29:58;;;;;;;27.97;14.73;;;;;;;;;;5059886;28;20206;-63
2023/02/21 07:32:26;;;;;;;25.07;14.00;;;;;;;;;;5059607;28;20698;-63
2023/02/21 07:34:54;;;;;;;22.10;12.93;;;;;;;;;;5059752;28;20241;-62
2023/02/21 07:37:22;;;;;;;31.93;15.47;;;;;;;;;;5059037;28;20729;-62
2023/02/21 07:39:51;;;;;;;24.53;13.40;;;;;;;;;;5059440;28;20294;-62
2023/02/21 07:42:19;;;;;;;24.90;14.50;;;;;;;;;;5040378;28;20211;-62
2023/02/21 07:44:47;;;;;;;31.07;14.90;;;;;;;;;;5039441;28;20714;-62
2023/02/21 07:47:16;;;;;;;33.27;14.90;;;;;;;;;;5039667;28;20203;-61
2023/02/21 07:49:46;;;;;;;22.27;12.60;;;;;;;;;;5039400;28;20203;-61
2023/02/21 07:52:14;;;;;;;24.23;12.83;;;;;;;;;;5039139;28;20269;-63
2023/02/21 07:54:42;;;;;;;26.33;11.70;;;;;;;;;;5044755;28;20306;-63
2023/02/21 07:57:11;;;;;;;23.67;12.50;;;;;;;;;;5048781;28;20199;-63
2023/02/21 07:59:39;;;;;;;25.33;13.40;;;;;;;;;;5047858;28;20195;-63
2023/02/21 08:02:08;;;;;;;23.70;13.27;;;;;;;;;;5048997;28;20233;-63
2023/02/21 08:04:36;;;;;;;22.97;11.97;;;;;;;;;;5046424;28;20280;-63
2023/02/21 08:07:04;;;;;;;33.43;13.33;;;;;;;;;;5047196;28;20710;-63
2023/02/21 08:09:33;;;;;;;25.87;12.97;;;;;;;;;;5045863;28;20268;-63
2023/02/21 08:12:01;;;;;;;24.27;12.27;;;;;;;;;;5044439;28;20200;-63
2023/02/21 08:14:30;;;;;;;21.30;13.20;;;;;;;;;;5039138;28;20227;-63
2023/02/21 08:16:59;;;;;;;31.67;14.63;;;;;;;;;;5039206;28;20206;-63
2023/02/21 08:19:27;;;;;;;33.47;14.40;;;;;;;;;;5039285;28;20226;-63
2023/02/21 08:21:55;;;;;;;25.00;12.33;;;;;;;;;;5038814;28;20211;-63
2023/02/21 08:24:23;;;;;;;32.77;13.30;;;;;;;;;;5046830;28;20263;-63
2023/02/21 08:26:51;;;;;;;23.50;12.53;;;;;;;;;;5047262;28;20729;-63
2023/02/21 08:29:19;;;;;;;28.97;13.33;;;;;;;;;;5044671;28;20210;-63
2023/02/21 08:31:51;;;;;;;28.33;12.97;;;;;;;;;;5046883;28;20206;-63
2023/02/21 08:34:19;;;;;;;27.70;13.83;;;;;;;;;;5046024;28;20698;-63
2023/02/21 08:36:47;;;;;;;23.00;12.83;;;;;;;;;;5038442;28;20307;-63
2023/02/21 08:39:15;;;;;;;21.03;12.73;;;;;;;;;;5051417;28;20210;-63
2023/02/21 08:41:44;;;;;;;27.33;14.37;;;;;;;;;;5049150;28;20207;-62
2023/02/21 08:44:14;;;;;;;30.00;13.63;;;;;;;;;;5047703;28;20351;-63
2023/02/21 08:46:43;;;;;;;26.27;14.57;;;;;;;;;;5045636;28;20264;-61
2023/02/21 08:49:12;;;;;;;25.30;14.60;;;;;;;;;;5046444;28;20226;-62
2023/02/21 08:51:40;;;;;;;25.63;13.07;;;;;;;;;;5045014;28;20199;-63
2023/02/21 08:54:08;;;;;;;23.87;12.93;;;;;;;;;;5041021;28;20262;-62
2023/02/21 08:56:36;;;;;;;22.70;13.00;;;;;;;;;;5043552;28;20196;-63
2023/02/21 08:59:04;;;;;;;25.60;13.20;;;;;;;;;;5047409;28;20690;-60
2023/02/21 09:01:34;;;;;;;24.30;14.20;;;;;;;;;;5047322;28;20667;-63
2023/02/21 09:04:03;;;;;;;29.27;13.53;;;;;;;;;;5047519;28;20254;-63
2023/02/21 09:06:32;;;;;;;37.93;14.53;;;;;;;;;;5039709;28;20212;-63
2023/02/21 09:09:00;;;;;;;21.40;13.63;;;;;;;;;;5040045;28;20290;-63
2023/02/21 09:11:28;;;;;;;25.27;13.87;;;;;;;;;;5045807;28;20227;-63
2023/02/21 09:13:56;;;;;;;28.00;14.00;;;;;;;;;;5047843;28;20226;-62
2023/02/21 09:16:24;;;;;;;21.50;13.80;;;;;;;;;;5046807;28;20206;-63
2023/02/21 09:18:55;;;;;;;20.97;13.57;;;;;;;;;;5038165;28;20207;-63
2023/02/21 09:21:23;;;;;;;26.97;13.60;;;;;;;;;;5049911;28;20277;-63
2023/02/21 09:23:54;;;;;;;28.27;13.70;;;;;;;;;;5037667;28;20306;-63
2023/02/21 09:26:23;;;;;;;85.23;24.17;;;;;;;;;;5038091;28;20214;-63
2023/02/21 09:28:51;;;;;;;33.87;15.40;;;;;;;;;;5040119;28;20200;-63
2023/02/21 09:31:19;;;;;;;30.47;14.90;;;;;;;;;;5046189;28;20226;-64
2023/02/21 09:33:47;;;;;;;27.83;14.87;;;;;;;;;;5044533;28;20223;-63
2023/02/21 09:36:15;;;;;;;22.60;13.97;;;;;;;;;;5044985;28;20270;-63
2023/02/21 09:38:43;;;;;;;25.10;13.97;;;;;;;;;;5047838;28;20199;-64
2023/02/21 09:41:13;;;;;;;27.17;13.27;;;;;;;;;;5048161;28;20678;-63
2023/02/21 09:43:44;;;;;;;22.50;13.87;;;;;;;;;;5040093;28;20315;-64
2023/02/21 09:46:14;;;;;;;25.00;13.53;;;;;;;;;;5043803;28;20571;-64
2023/02/21 09:48:43;;;;;;;22.17;14.33;;;;;;;;;;5045486;28;20199;-63
2023/02/21 09:51:11;;;;;;;30.93;14.53;;;;;;;;;;5046607;28;20754;-64
2023/02/21 09:53:41;;;;;;;21.47;14.00;;;;;;;;;;5041464;28;20626;-64
2023/02/21 09:56:13;;;;;;;26.20;14.87;;;;;;;;;;5041802;28;20203;-64
2023/02/21 09:58:43;;;;;;;25.47;14.70;;;;;;;;;;5043203;28;20199;-63
2023/02/21 10:01:20;;;;;;;22.87;13.17;;;;;;;;;;5049920;28;20686;-63
2023/02/21 10:03:54;;;;;;;24.33;14.47;;;;;;;;;;5052569;28;20234;-64
2023/02/21 10:06:29;;;;;;;21.83;13.43;;;;;;;;;;5051741;28;20238;-63
2023/02/21 10:09:01;;;;;;;24.33;13.23;;;;;;;;;;5050790;28;20333;-64
2023/02/21 10:11:37;;;;;;;25.70;13.27;;;;;;;;;;5050532;28;20235;-64
2023/02/21 10:14:17;;;;;;;20.13;12.20;;;;;;;;;;5049168;28;20268;-63
2023/02/21 10:16:48;;;;;;;19.23;12.70;;;;;;;;;;5048956;28;20206;-63
2023/02/21 10:19:20;;;;;;;43.27;26.27;;;;;;;;;;5048965;28;20591;-64
2023/02/21 10:21:49;;;;;;;27.87;15.73;;;;;;;;;;5048993;28;20265;-64
2023/02/21 10:24:20;;;;;;;21.80;12.70;;;;;;;;;;5050875;28;20219;-64
2023/02/21 10:26:53;;;;;;;18.93;11.90;;;;;;;;;;5050997;28;20210;-64
2023/02/21 10:29:24;;;;;;;18.73;12.17;;;;;;;;;;5048007;28;20284;-63
2023/02/21 10:31:54;;;;;;;17.47;11.87;;;;;;;;;;5048782;28;20638;-64
2023/02/21 10:34:25;;;;;;;17.30;12.60;;;;;;;;;;5049579;28;20589;-64
2023/02/21 10:36:55;;;;;;;17.73;12.03;;;;;;;;;;5051470;28;20208;-64
2023/02/21 10:39:29;;;;;;;23.97;12.73;;;;;;;;;;5051987;28;20205;-64
2023/02/21 10:41:58;;;;;;;19.83;11.83;;;;;;;;;;5053467;28;20246;-64
2023/02/21 10:44:30;;;;;;;15.43;11.20;;;;;;;;;;5052258;28;20259;-63
2023/02/21 10:47:02;;;;;;;16.50;11.27;;;;;;;;;;5048504;28;20200;-63
2023/02/21 10:49:33;;;;;;;18.23;11.73;;;;;;;;;;5050930;28;20239;-64
2023/02/21 10:52:05;;;;;;;17.70;10.87;;;;;;;;;;5051029;28;20221;-63
2023/02/21 10:54:33;;;;;;;18.73;12.07;;;;;;;;;;5050618;28;20214;-64
2023/02/21 10:57:04;;;;;;;17.00;12.47;;;;;;;;;;5050380;28;20702;-64
2023/02/21 10:59:34;;;;;;;16.33;10.90;;;;;;;;;;5049669;28;20199;-64
2023/02/21 11:02:03;;;;;;;16.67;10.97;;;;;;;;;;5048184;28;20566;-64
2023/02/21 11:04:33;;;;;;;18.37;10.33;;;;;;;;;;5047971;28;20276;-63
2023/02/21 11:07:05;;;;;;;18.13;10.67;;;;;;;;;;5050995;28;20287;-61
2023/02/21 11:09:35;;;;;;;14.27;10.33;;;;;;;;;;5044646;28;20207;-62
2023/02/21 11:12:05;;;;;;;18.07;11.47;;;;;;;;;;5049924;28;20207;-61
2023/02/21 11:14:35;;;;;;;16.17;11.30;;;;;;;;;;5043723;28;20309;-61
2023/02/21 11:17:11;;;;;;;17.07;10.63;;;;;;;;;;5045810;28;20217;-62
2023/02/21 11:19:48;;;;;;;19.17;11.90;;;;;;;;;;5040594;28;20233;-61
2023/02/21 11:22:20;;;;;;;16.47;11.07;;;;;;;;;;5041096;28;20238;-61
2023/02/21 11:24:53;;;;;;;17.20;11.63;;;;;;;;;;5040102;28;20258;-61
2023/02/21 11:27:22;;;;;;;16.20;11.47;;;;;;;;;;5045027;28;20683;-61
2023/02/21 11:29:52;;;;;;;16.43;10.93;;;;;;;;;;5049404;28;20231;-61
2023/02/21 11:32:23;;;;;;;19.70;11.67;;;;;;;;;;5043858;28;20203;-61
2023/02/21 11:34:51;;;;;;;21.07;11.47;;;;;;;;;;5039448;28;20310;-60
2023/02/21 11:37:19;;;;;;;16.67;11.80;;;;;;;;;;5044091;28;20203;-61
2023/02/21 11:39:50;;;;;;;20.10;11.93;;;;;;;;;;5059567;28;20705;-61
2023/02/21 11:42:27;;;;;;;17.43;11.50;;;;;;;;;;5040751;28;20203;-60
2023/02/21 11:45:14;;;;;;;17.80;11.60;;;;;;;;;;5039533;28;20685;-61
2023/02/21 11:47:46;;;;;;;16.73;11.60;;;;;;;;;;5039749;28;20250;-61
2023/02/21 11:50:16;;;;;;;15.97;11.47;;;;;;;;;;5039471;28;20546;-60
2023/02/21 11:52:46;;;;;;;22.63;13.07;;;;;;;;;;5043559;28;20258;-61
2023/02/21 11:55:15;;;;;;;14.60;9.83;;;;;;;;;;5050465;28;20199;-61
2023/02/21 11:57:48;;;;;;;15.43;10.57;;;;;;;;;;5039206;28;20207;-61
2023/02/21 12:00:23;;;;;;;19.67;11.60;;;;;;;;;;5056114;28;20211;-61
2023/02/21 12:03:03;;;;;;;18.27;10.57;;;;;;;;;;5057374;28;20612;-61
2023/02/21 12:05:41;;;;;;;13.47;9.53;;;;;;;;;;5038987;28;20690;-62
2023/02/21 12:08:26;;;;;;;13.40;9.67;;;;;;;;;;5038752;28;20697;-62
2023/02/21 12:11:00;;;;;;;13.63;10.13;;;;;;;;;;5050435;28;20198;-62
2023/02/21 12:13:32;;;;;;;14.97;9.50;;;;;;;;;;5039160;28;20227;-61
2023/02/21 12:16:07;;;;;;;13.17;8.60;;;;;;;;;;5038227;28;20203;-61
2023/02/21 12:18:42;;;;;;;16.57;9.20;;;;;;;;;;5038938;28;20651;-61
2023/02/21 12:21:20;;;;;;;16.10;9.27;;;;;;;;;;5038808;28;20210;-61
2023/02/21 12:23:53;;;;;;;13.50;10.03;;;;;;;;;;5050823;28;20253;-61
2023/02/21 12:26:27;;;;;;;15.23;9.97;;;;;;;;;;5038950;28;20310;-61
2023/02/21 12:29:03;;;;;;;11.90;8.90;;;;;;;;;;5038909;28;20213;-61
2023/02/21 12:31:40;;;;;;;14.80;8.63;;;;;;;;;;5038884;28;20220;-61
2023/02/21 12:34:17;;;;;;;13.63;8.70;;;;;;;;;;5038819;28;20236;-62
2023/02/21 12:36:54;;;;;;;21.70;10.53;;;;;;;;;;5038208;28;20569;-61
2023/02/21 12:39:27;;;;;;;13.67;9.80;;;;;;;;;;5038756;28;20627;-61
2023/02/21 12:42:16;;;;;;;12.17;8.67;;;;;;;;;;5042222;28;20213;-61
2023/02/21 12:44:50;;;;;;;15.77;8.90;;;;;;;;;;5048465;28;20265;-61
2023/02/21 12:47:23;;;;;;;13.20;8.20;;;;;;;;;;5058433;28;20218;-61
2023/02/21 12:49:55;;;;;;;14.53;9.20;;;;;;;;;;5058602;28;20211;-62
2023/02/21 12:52:26;;;;;;;13.33;8.70;;;;;;;;;;5058088;28;20257;-62
2023/02/21 12:54:59;;;;;;;13.27;9.27;;;;;;;;;;5058218;28;20207;-62
2023/02/21 12:57:30;;;;;;;14.00;9.70;;;;;;;;;;5058016;28;20213;-61
2023/02/21 13:00:06;;;;;;;15.40;8.87;;;;;;;;;;5058201;28;20238;-62
2023/02/21 13:02:43;;;;;;;11.70;8.20;;;;;;;;;;5039778;28;20290;-61
2023/02/21 13:05:13;;;;;;;10.07;8.43;;;;;;;;;;5038084;28;20207;-62
2023/02/21 13:07:44;;;;;;;11.83;9.00;;;;;;;;;;5037573;28;20703;-62
2023/02/21 13:10:16;;;;;;;13.33;8.73;;;;;;;;;;5037968;28;20261;-61
2023/02/21 13:12:46;;;;;;;10.33;8.10;;;;;;;;;;5037858;28;20768;-61
2023/02/21 13:15:18;;;;;;;13.47;9.03;;;;;;;;;;5038172;28;20211;-61
2023/02/21 13:17:52;;;;;;;15.53;9.20;;;;;;;;;;5038768;28;20207;-61
2023/02/21 13:20:21;;;;;;;10.77;7.87;;;;;;;;;;5037827;28;20683;-62
2023/02/21 13:26:00;;;;;;;13.03;8.83;;;;;;;;;;5037492;28;20230;-61
2023/02/21 13:28:29;;;;;;;16.00;7.90;;;;;;;;;;5037679;28;20633;-61
2023/02/21 13:30:59;;;;;;;12.53;8.40;;;;;;;;;;5037694;28;20260;-62
2023/02/21 13:33:37;;;;;;;13.87;8.23;;;;;;;;;;5037561;28;20301;-61
2023/02/21 13:36:16;;;;;;;10.20;8.30;;;;;;;;;;5051261;28;20234;-61
2023/02/21 13:38:45;;;;;;;11.87;7.77;;;;;;;;;;5057166;28;20206;-62
2023/02/21 13:41:15;;;;;;;10.43;7.23;;;;;;;;;;5047428;28;20227;-62
2023/02/21 13:43:47;;;;;;;14.43;8.50;;;;;;;;;;5037376;28;20285;-62
2023/02/21 13:46:26;;;;;;;10.70;8.07;;;;;;;;;;5037422;28;20261;-60
2023/02/21 13:49:12;;;;;;;12.47;8.10;;;;;;;;;;5055436;28;20237;-62
2023/02/21 13:51:51;;;;;;;11.70;7.80;;;;;;;;;;5054311;28;20622;-62
2023/02/21 13:54:23;;;;;;;13.53;8.00;;;;;;;;;;5037650;28;20231;-61
2023/02/21 13:56:51;;;;;;;8.20;7.13;;;;;;;;;;5037397;28;20218;-62
2023/02/21 13:59:35;;;;;;;12.77;8.47;;;;;;;;;;5037373;28;20207;-61
2023/02/21 14:02:16;;;;;;;10.40;8.30;;;;;;;;;;5037370;28;20211;-61
2023/02/21 14:05:00;;;;;;;47.47;11.20;;;;;;;;;;5037015;28;20231;-62
2023/02/21 14:07:49;;;;;;;16.30;8.73;;;;;;;;;;5037213;28;20227;-60
2023/02/21 14:10:25;;;;;;;10.83;7.73;;;;;;;;;;5052311;28;20293;-60
2023/02/21 14:12:58;;;;;;;10.93;7.83;;;;;;;;;;5057112;28;20599;-60
2023/02/21 14:15:37;;;;;;;16.80;8.97;;;;;;;;;;5057173;28;20218;-61
2023/02/21 14:18:06;;;;;;;9.27;7.53;;;;;;;;;;5057288;28;20233;-61
2023/02/21 14:20:36;;;;;;;9.33;7.67;;;;;;;;;;5044149;28;20226;-61
2023/02/21 14:23:04;;;;;;;12.47;8.33;;;;;;;;;;5045276;28;20230;-60
2023/02/21 14:25:35;;;;;;;9.57;7.97;;;;;;;;;;5055475;28;20264;-60
2023/02/21 14:28:27;;;;;;;9.97;7.10;;;;;;;;;;5037067;28;20255;-60
2023/02/21 14:31:01;;;;;;;12.13;7.80;;;;;;;;;;5036968;28;20213;-61
2023/02/21 14:33:30;;;;;;;11.47;7.90;;;;;;;;;;5037247;28;20266;-61
2023/02/21 14:36:00;;;;;;;18.07;8.07;;;;;;;;;;5036442;28;20243;-60
2023/02/21 14:38:29;;;;;;;14.23;7.43;;;;;;;;;;5052162;28;20234;-59
2023/02/21 14:41:02;;;;;;;12.10;7.70;;;;;;;;;;5052542;28;20199;-60
2023/02/21 14:43:54;;;;;;;13.63;8.07;;;;;;;;;;5050153;28;20314;-59
2023/02/21 14:46:36;;;;;;;16.23;8.40;;;;;;;;;;5026480;28;20219;-60
2023/02/21 14:49:18;;;;;;;17.80;8.63;;;;;;;;;;5045701;28;20199;-59
2023/02/21 14:52:02;;;;;;;13.90;7.87;;;;;;;;;;5048721;28;20308;-59
2023/02/21 14:54:58;;;;;;;12.43;8.37;;;;;;;;;;5049693;28;20665;-59
2023/02/21 14:57:38;;;;;;;11.63;7.90;;;;;;;;;;5048744;28;20199;-60
2023/02/21 15:00:13;;;;;;;11.80;7.80;;;;;;;;;;5047759;28;20242;-60
2023/02/21 15:02:43;;;;;;;11.23;8.20;;;;;;;;;;5043049;28;20231;-60
2023/02/21 15:05:16;;;;;;;11.27;7.83;;;;;;;;;;5040571;28;20235;-60
2023/02/21 15:07:51;;;;;;;11.20;7.97;;;;;;;;;;5040094;28;20274;-60
2023/02/21 15:10:22;;;;;;;13.17;8.30;;;;;;;;;;5040407;28;20207;-60
2023/02/21 15:12:53;;;;;;;13.73;7.30;;;;;;;;;;5040043;28;20282;-61
2023/02/21 15:15:23;;;;;;;12.90;8.33;;;;;;;;;;5049977;28;20635;-60
2023/02/21 15:18:14;;;;;;;12.77;7.17;;;;;;;;;;5041773;28;20203;-60
2023/02/21 15:20:43;;;;;;;11.17;7.73;;;;;;;;;;5034631;28;20215;-60
2023/02/21 15:23:12;;;;;;;12.27;7.73;;;;;;;;;;5039683;28;20668;-60
2023/02/21 15:25:41;;;;;;;10.07;6.70;;;;;;;;;;5040069;28;20215;-60
2023/02/21 15:28:21;;;;;;;11.40;7.30;;;;;;;;;;5040095;28;20235;-60
2023/02/21 15:30:57;;;;;;;9.17;6.63;;;;;;;;;;5040119;28;20215;-60
2023/02/21 15:33:27;;;;;;;11.43;7.03;;;;;;;;;;5039949;28;20246;-60
2023/02/21 15:36:04;;;;;;;34.93;11.90;;;;;;;;;;5039041;28;20758;-60
2023/02/21 15:38:33;;;;;;;53.93;14.93;;;;;;;;;;5048275;28;20222;-59
2023/02/21 15:41:04;;;;;;;41.67;12.77;;;;;;;;;;5048030;28;20241;-59
2023/02/21 15:43:37;;;;;;;17.17;8.87;;;;;;;;;;5051035;28;20593;-59
2023/02/21 15:46:07;;;;;;;17.00;8.00;;;;;;;;;;5039521;28;20550;-61
2023/02/21 15:48:36;;;;;;;15.83;7.67;;;;;;;;;;5039488;28;20232;-60
2023/02/21 15:51:05;;;;;;;50.10;21.43;;;;;;;;;;5039246;28;20269;-60
2023/02/21 15:53:33;;;;;;;16.37;10.93;;;;;;;;;;5039364;28;20219;-61
2023/02/21 15:56:21;;;;;;;17.37;8.97;;;;;;;;;;5047777;28;20227;-60
2023/02/21 15:59:16;;;;;;;16.43;8.33;;;;;;;;;;5046844;28;20192;-60
2023/02/21 16:01:46;;;;;;;13.13;7.70;;;;;;;;;;5011635;28;20254;-61
2023/02/21 16:04:18;;;;;;;11.77;7.57;;;;;;;;;;5047367;28;20724;-60
2023/02/21 16:06:48;;;;;;;11.33;7.10;;;;;;;;;;5047944;28;20241;-61
2023/02/21 16:09:23;;;;;;;13.67;7.90;;;;;;;;;;5047179;28;20667;-60
2023/02/21 16:11:52;;;;;;;10.90;6.90;;;;;;;;;;5049367;28;20229;-60
2023/02/21 16:14:23;;;;;;;12.67;7.37;;;;;;;;;;5049845;28;20281;-61
2023/02/21 16:16:56;;;;;;;12.00;7.30;;;;;;;;;;5048111;28;20195;-61
2023/02/21 16:19:24;;;;;;;13.00;7.67;;;;;;;;;;5048790;28;20206;-61
2023/02/21 16:22:07;;;;;;;12.37;7.10;;;;;;;;;;5046502;28;20203;-61
2023/02/21 16:24:36;;;;;;;12.27;7.57;;;;;;;;;;5046679;28;20262;-61
2023/02/21 16:27:05;;;;;;;15.40;7.00;;;;;;;;;;5046739;28;20213;-60
2023/02/21 16:29:33;;;;;;;9.20;6.80;;;;;;;;;;5046394;28;20302;-60
2023/02/21 16:32:03;;;;;;;9.30;7.23;;;;;;;;;;5046410;28;20203;-61
2023/02/21 16:34:32;;;;;;;10.93;6.20;;;;;;;;;;5048620;28;21081;-59
2023/02/21 16:37:04;;;;;;;10.80;7.87;;;;;;;;;;5049034;28;20206;-59
2023/02/21 16:39:32;;;;;;;10.97;6.80;;;;;;;;;;5047138;28;20231;-60
2023/02/21 16:42:00;;;;;;;15.47;7.77;;;;;;;;;;5049969;28;20231;-59
2023/02/21 16:44:28;;;;;;;14.03;7.60;;;;;;;;;;5046074;28;20223;-59
2023/02/21 16:46:56;;;;;;;18.90;7.50;;;;;;;;;;5046897;28;20287;-60
2023/02/21 16:49:26;;;;;;;12.23;7.13;;;;;;;;;;5048172;28;20706;-59
2023/02/21 16:51:54;;;;;;;9.53;7.50;;;;;;;;;;5045395;28;20208;-61
2023/02/21 16:54:22;;;;;;;9.33;6.33;;;;;;;;;;5049762;28;20227;-61
2023/02/21 16:56:51;;;;;;;11.70;6.43;;;;;;;;;;5052404;28;20235;-60
2023/02/21 16:59:20;;;;;;;7.00;5.83;;;;;;;;;;5050090;28;21081;-61
2023/02/21 17:01:51;;;;;;;9.00;6.27;;;;;;;;;;5045873;28;20200;-59
2023/02/21 17:04:20;;;;;;;10.00;6.47;;;;;;;;;;5046482;28;20226;-59
2023/02/21 17:06:51;;;;;;;13.67;6.63;;;;;;;;;;5045783;28;20226;-59